createdAt,value
2019-06-04T00:00:29.455Z,66.02
2019-06-04T00:02:58.381Z,66.20
2019-06-04T00:05:27.332Z,66.64
2019-06-04T00:07:57.474Z,67.12
2019-06-04T00:10:25.110Z,67.42
2019-06-04T00:12:54.039Z,67.30
2019-06-04T00:15:22.918Z,66.89
2019-06-04T00:17:51.860Z,66.54
2019-06-04T00:20:20.746Z,66.76
2019-06-04T00:22:49.657Z,67.37
2019-06-04T00:25:18.547Z,67.18
2019-06-04T00:27:47.455Z,67.31
2019-06-04T00:30:16.346Z,67.45
2019-06-04T00:32:45.285Z,67.24
2019-06-04T00:35:14.172Z,67.42
2019-06-04T00:37:43.068Z,67.09
2019-06-04T00:40:11.955Z,67.15
2019-06-04T00:42:40.833Z,67.57
2019-06-04T00:45:09.740Z,68.03
2019-06-04T00:47:38.658Z,68.17
2019-06-04T00:50:07.581Z,67.99
2019-06-04T00:52:36.476Z,68.03
2019-06-04T00:55:23.114Z,68.28
2019-06-04T00:57:52.052Z,68.53
2019-06-04T01:00:20.958Z,68.20
2019-06-04T01:02:49.897Z,68.40
2019-06-04T01:05:18.819Z,68.57
2019-06-04T01:07:47.705Z,68.66
2019-06-04T01:10:16.608Z,68.64
2019-06-04T01:12:45.529Z,68.37
2019-06-04T01:15:25.104Z,68.70
2019-06-04T01:17:43.460Z,68.67
2019-06-04T01:20:12.359Z,68.54
2019-06-04T01:22:41.272Z,67.80
2019-06-04T01:25:10.156Z,67.75
2019-06-04T01:27:39.070Z,67.94
2019-06-04T01:30:08.086Z,67.69
2019-06-04T01:32:36.957Z,67.49
2019-06-04T01:35:06.314Z,67.95
2019-06-04T01:37:34.783Z,68.68
2019-06-04T01:40:05.148Z,68.94
2019-06-04T01:42:32.580Z,68.85
2019-06-04T01:45:01.491Z,68.92
2019-06-04T01:47:30.393Z,68.89
2019-06-04T01:49:59.295Z,69.12
2019-06-04T01:52:28.179Z,69.25
2019-06-04T01:54:57.088Z,68.58
2019-06-04T01:57:26.023Z,68.89
2019-06-04T01:59:54.913Z,69.21
2019-06-04T02:02:33.242Z,69.83
2019-06-04T02:04:52.769Z,69.15
2019-06-04T02:07:21.660Z,69.22
2019-06-04T02:09:50.551Z,69.59
2019-06-04T02:12:19.481Z,70.20
2019-06-04T02:14:48.361Z,70.22
2019-06-04T02:17:17.940Z,70.44
2019-06-04T02:19:46.192Z,69.99
2019-06-04T02:22:15.110Z,69.65
2019-06-04T02:24:44.020Z,69.58
2019-06-04T02:27:12.908Z,69.40
2019-06-04T02:29:41.804Z,69.71
2019-06-04T02:32:10.842Z,70.14
2019-06-04T02:34:39.773Z,70.35
2019-06-04T02:37:08.780Z,70.58
2019-06-04T02:39:37.593Z,69.99
2019-06-04T02:42:07.172Z,69.52
2019-06-04T02:44:35.415Z,69.23
2019-06-04T02:47:04.366Z,69.54
2019-06-04T02:49:33.263Z,70.25
2019-06-04T02:52:02.495Z,70.70
2019-06-04T02:54:31.688Z,70.90
2019-06-04T02:57:00.993Z,71.46
2019-06-04T02:59:30.502Z,71.47
2019-06-04T03:01:59.480Z,71.65
2019-06-04T03:04:28.290Z,71.68
2019-06-04T03:06:57.201Z,72.05
2019-06-04T03:09:26.078Z,71.78
2019-06-04T03:11:54.991Z,72.04
2019-06-04T03:14:23.870Z,72.60
2019-06-04T03:16:52.775Z,72.28
2019-06-04T03:19:21.663Z,72.22
2019-06-04T03:21:50.572Z,72.39
2019-06-04T03:24:19.795Z,72.52
2019-06-04T03:26:48.405Z,72.73
2019-06-04T03:29:17.644Z,72.42
2019-06-04T03:31:46.227Z,72.58
2019-06-04T03:34:17.569Z,72.94
2019-06-04T03:36:44.031Z,72.94
2019-06-04T03:39:13.997Z,73.07
2019-06-04T03:41:41.825Z,72.81
2019-06-04T03:44:10.734Z,72.61
2019-06-04T03:46:39.666Z,72.55
2019-06-04T03:49:08.592Z,71.91
2019-06-04T03:51:37.475Z,72.96
2019-06-04T03:54:07.044Z,72.95
2019-06-04T03:56:35.853Z,73.00
2019-06-04T03:59:04.827Z,72.87
2019-06-04T04:01:33.702Z,72.52
2019-06-04T04:04:07.678Z,72.53
2019-06-04T04:06:31.519Z,72.59
2019-06-04T04:09:00.414Z,72.38
2019-06-04T04:11:29.329Z,72.52
2019-06-04T04:13:58.197Z,72.44
2019-06-04T04:16:27.102Z,72.50
2019-06-04T04:18:55.971Z,72.69
2019-06-04T04:21:25.231Z,72.47
2019-06-04T04:23:53.748Z,72.58
2019-06-04T04:26:23.076Z,72.86
2019-06-04T04:28:51.527Z,72.72
2019-06-04T04:31:21.774Z,72.75
2019-06-04T04:33:49.334Z,72.55
2019-06-04T04:36:19.240Z,72.29
2019-06-04T04:38:47.118Z,72.07
2019-06-04T04:41:16.065Z,72.16
2019-06-04T04:43:44.963Z,72.40
2019-06-04T04:46:13.876Z,72.49
2019-06-04T04:48:42.779Z,72.43
2019-06-04T04:51:11.668Z,72.30
2019-06-04T04:53:40.606Z,72.35
2019-06-04T04:56:09.579Z,72.39
2019-06-04T04:58:38.500Z,72.33
2019-06-04T05:01:07.480Z,72.29
2019-06-04T05:03:36.396Z,72.30
2019-06-04T05:06:05.470Z,72.20
2019-06-04T05:08:34.787Z,72.49
2019-06-04T05:11:03.734Z,72.42
2019-06-04T05:13:32.622Z,72.33
2019-06-04T05:16:03.040Z,72.22
2019-06-04T05:18:31.937Z,72.07
2019-06-04T05:21:00.821Z,72.04
2019-06-04T05:23:29.989Z,72.17
2019-06-04T05:25:58.658Z,72.23
2019-06-04T05:28:27.727Z,72.32
2019-06-04T05:30:56.473Z,72.07
2019-06-04T05:33:26.081Z,72.11
2019-06-04T05:35:54.383Z,71.78
2019-06-04T05:38:23.988Z,70.99
2019-06-04T05:40:52.213Z,70.10
2019-06-04T05:43:22.428Z,69.56
2019-06-04T05:45:50.017Z,68.96
2019-06-04T05:48:19.293Z,68.34
2019-06-04T05:50:48.168Z,67.40
2019-06-04T05:53:17.172Z,66.41
2019-06-04T05:55:45.980Z,65.67
2019-06-04T05:58:14.896Z,64.94
2019-06-04T06:00:44.241Z,63.77
2019-06-04T06:03:13.142Z,62.47
2019-06-04T06:05:42.046Z,61.05
2019-06-04T06:08:11.015Z,59.39
2019-06-04T06:10:39.884Z,57.02
2019-06-04T06:13:08.900Z,55.55
2019-06-04T06:15:37.831Z,54.34
2019-06-04T06:18:06.805Z,53.33
2019-06-04T06:20:35.683Z,52.26
2019-06-04T06:23:11.330Z,51.31
2019-06-04T06:25:40.221Z,49.40
2019-06-04T06:28:02.425Z,45.36
2019-06-04T06:30:32.664Z,41.86
2019-06-04T06:33:00.256Z,38.49
2019-06-04T06:35:44.601Z,36.59
2019-06-04T06:37:58.041Z,35.79
2019-06-04T06:40:27.569Z,34.77
2019-06-04T06:42:55.861Z,34.12
2019-06-04T06:45:25.915Z,32.75
2019-06-04T06:47:53.614Z,32.76
2019-06-04T06:50:22.493Z,32.73
2019-06-04T06:52:51.437Z,31.66
2019-06-04T06:55:20.311Z,30.60
2019-06-04T06:57:49.206Z,30.16
2019-06-04T07:00:39.879Z,29.47
2019-06-04T07:03:08.417Z,28.06
2019-06-04T07:05:37.304Z,27.26
2019-06-04T07:08:06.288Z,27.39
2019-06-04T07:10:36.728Z,26.49
2019-06-04T07:13:04.141Z,24.84
2019-06-04T07:15:34.650Z,26.32
2019-06-04T07:18:02.492Z,24.46
2019-06-04T07:20:31.940Z,23.52
2019-06-04T07:23:01.110Z,22.79
2019-06-04T07:25:33.712Z,22.18
2019-06-04T07:28:02.003Z,22.45
2019-06-04T07:30:33.998Z,21.36
2019-06-04T07:33:02.344Z,20.98
2019-06-04T07:35:34.687Z,20.47
2019-06-04T07:38:03.375Z,20.47
2019-06-04T07:40:35.249Z,21.92
2019-06-04T07:43:04.898Z,22.52
2019-06-04T07:45:35.444Z,20.69
2019-06-04T07:48:03.202Z,19.54
2019-06-04T07:50:33.730Z,19.95
2019-06-04T07:53:01.701Z,19.67
2019-06-04T07:55:34.248Z,18.93
2019-06-04T07:58:02.577Z,19.23
2019-06-04T08:00:48.075Z,18.26
2019-06-04T08:03:20.509Z,18.09
2019-06-04T08:05:51.824Z,17.47
2019-06-04T08:08:21.172Z,18.07
2019-06-04T08:10:54.928Z,18.12
2019-06-04T08:13:25.753Z,16.62
2019-06-04T08:15:55.014Z,16.25
2019-06-04T08:18:25.897Z,17.23
2019-06-04T08:20:53.379Z,16.10
2019-06-04T08:23:22.397Z,15.44
2019-06-04T08:25:51.697Z,16.88
2019-06-04T08:28:20.774Z,15.26
2019-06-04T08:30:50.006Z,15.84
2019-06-04T08:33:19.200Z,16.08
2019-06-04T08:35:48.285Z,15.71
2019-06-04T08:38:17.553Z,15.98
2019-06-04T08:40:52.201Z,14.68
2019-06-04T08:43:25.383Z,15.76
2019-06-04T08:45:50.575Z,14.34
2019-06-04T08:48:22.023Z,15.27
2019-06-04T08:50:51.121Z,15.80
2019-06-04T08:53:20.227Z,18.04
2019-06-04T08:55:51.718Z,19.57
2019-06-04T08:58:21.053Z,20.83
2019-06-04T09:00:50.075Z,19.68
2019-06-04T09:03:19.324Z,17.75
2019-06-04T09:05:50.453Z,16.60
2019-06-04T09:08:17.678Z,16.15
2019-06-04T09:10:48.560Z,14.60
2019-06-04T09:13:20.823Z,14.48
2019-06-04T09:15:55.962Z,14.83
2019-06-04T09:18:24.395Z,14.47
2019-06-04T09:20:54.146Z,13.51
2019-06-04T09:23:23.336Z,13.78
2019-06-04T09:25:54.222Z,13.87
2019-06-04T09:28:23.527Z,14.67
2019-06-04T09:31:02.606Z,14.93
2019-06-04T09:33:22.349Z,14.28
2019-06-04T09:35:53.640Z,13.14
2019-06-04T09:38:23.122Z,14.06
2019-06-04T09:40:52.425Z,15.12
2019-06-04T09:43:26.745Z,15.46
2019-06-04T09:45:51.623Z,15.97
2019-06-04T09:48:20.972Z,16.81
2019-06-04T09:50:57.086Z,16.44
2019-06-04T09:53:19.446Z,16.55
2019-06-04T09:55:53.534Z,16.17
2019-06-04T09:58:29.870Z,15.43
2019-06-04T10:00:53.884Z,16.47
2019-06-04T10:03:25.421Z,16.87
2019-06-04T10:05:54.512Z,15.72
2019-06-04T10:08:23.886Z,15.22
2019-06-04T10:10:53.217Z,15.74
2019-06-04T10:13:25.128Z,15.99
2019-06-04T10:15:54.528Z,15.99
2019-06-04T10:18:23.922Z,17.78
2019-06-04T10:20:54.120Z,16.62
2019-06-04T10:23:22.272Z,17.09
2019-06-04T10:25:52.407Z,19.08
2019-06-04T10:28:20.512Z,18.42
2019-06-04T10:30:51.063Z,19.88
2019-06-04T10:33:18.840Z,20.65
2019-06-04T10:35:48.756Z,21.29
2019-06-04T10:38:27.769Z,21.08
2019-06-04T10:40:50.204Z,21.97
2019-06-04T10:43:17.848Z,22.67
2019-06-04T10:45:49.473Z,22.31
2019-06-04T10:48:18.431Z,23.28
2019-06-04T10:50:49.189Z,24.29
2019-06-04T10:53:17.690Z,24.56
2019-06-04T10:55:47.743Z,24.47
2019-06-04T10:58:15.865Z,25.15
2019-06-04T11:00:50.993Z,24.78
2019-06-04T11:03:18.752Z,25.61
2019-06-04T11:05:48.622Z,26.31
2019-06-04T11:08:19.332Z,25.70
2019-06-04T11:10:49.814Z,25.67
2019-06-04T11:13:20.201Z,26.13
2019-06-04T11:15:50.039Z,26.44
2019-06-04T11:18:18.678Z,26.69
2019-06-04T11:20:50.317Z,26.72
2019-06-04T11:23:19.102Z,27.89
2019-06-04T11:25:49.762Z,27.99
2019-06-04T11:28:18.927Z,27.25
2019-06-04T11:30:54.002Z,28.91
2019-06-04T11:33:21.811Z,28.21
2019-06-04T11:35:53.303Z,29.42
2019-06-04T11:38:20.303Z,28.95
2019-06-04T11:40:53.148Z,29.20
2019-06-04T11:43:21.023Z,30.24
2019-06-04T11:45:54.749Z,31.00
2019-06-04T11:48:23.199Z,31.42
2019-06-04T11:50:53.284Z,31.63
2019-06-04T11:53:22.990Z,31.50
2019-06-04T11:55:53.983Z,33.22
2019-06-04T11:58:24.308Z,33.15
2019-06-04T12:01:02.518Z,33.00
2019-06-04T12:03:27.749Z,32.76
2019-06-04T12:05:56.557Z,33.40
2019-06-04T12:08:24.616Z,34.56
2019-06-04T12:10:54.814Z,33.79
2019-06-04T12:13:25.610Z,34.32
2019-06-04T12:15:55.576Z,35.00
2019-06-04T12:18:23.899Z,35.85
2019-06-04T12:20:55.762Z,35.42
2019-06-04T12:23:30.272Z,35.29
2019-06-04T12:25:51.617Z,36.28
2019-06-04T12:28:20.649Z,36.08
2019-06-04T12:30:49.818Z,36.10
2019-06-04T12:33:19.114Z,36.59
2019-06-04T12:35:48.352Z,37.02
2019-06-04T12:38:17.485Z,36.91
2019-06-04T12:40:46.851Z,36.89
2019-06-04T12:43:18.515Z,36.81
2019-06-04T12:45:48.205Z,36.92
2019-06-04T12:48:19.357Z,36.81
2019-06-04T12:50:48.349Z,37.39
2019-06-04T12:53:17.485Z,37.53
2019-06-04T12:55:46.840Z,37.79
2019-06-04T12:58:16.028Z,37.43
2019-06-04T13:00:45.329Z,37.68
2019-06-04T13:03:14.579Z,37.54
2019-06-04T13:05:46.354Z,37.92
2019-06-04T13:08:25.726Z,37.84
2019-06-04T13:10:47.710Z,38.12
2019-06-04T13:13:22.435Z,37.40
2019-06-04T13:15:49.965Z,37.67
2019-06-04T13:18:23.478Z,37.91
2019-06-04T13:20:48.151Z,37.66
2019-06-04T13:23:17.635Z,37.50
2019-06-04T13:25:47.123Z,37.63
2019-06-04T13:28:16.285Z,37.49
2019-06-04T13:30:52.793Z,37.15
2019-06-04T13:33:22.522Z,38.12
2019-06-04T13:35:51.576Z,37.72
2019-06-04T13:38:20.809Z,37.04
2019-06-04T13:40:50.209Z,36.79
2019-06-04T13:43:19.455Z,36.66
2019-06-04T13:45:48.563Z,37.86
2019-06-04T13:48:17.786Z,37.29
2019-06-04T13:50:47.087Z,37.09
2019-06-04T13:53:24.008Z,38.16
2019-06-04T13:55:47.889Z,37.92
2019-06-04T13:58:19.529Z,37.88
2019-06-04T14:00:46.161Z,38.16
2019-06-04T14:03:15.206Z,37.56
2019-06-04T14:05:44.545Z,38.23
2019-06-04T14:08:15.056Z,38.30
2019-06-04T14:10:50.290Z,38.28
2019-06-04T14:13:12.402Z,38.65
2019-06-04T14:15:41.281Z,39.20
2019-06-04T14:18:12.360Z,38.79
2019-06-04T14:20:40.192Z,39.33
2019-06-04T14:23:15.555Z,38.77
2019-06-04T14:25:45.632Z,39.56
2019-06-04T14:28:16.335Z,39.38
2019-06-04T14:30:44.617Z,39.63
2019-06-04T14:33:14.647Z,39.43
2019-06-04T14:35:43.614Z,39.75
2019-06-04T14:38:14.273Z,39.87
2019-06-04T14:40:42.032Z,39.70
2019-06-04T14:43:12.049Z,39.97
2019-06-04T14:45:40.600Z,39.61
2019-06-04T14:48:09.971Z,39.54
2019-06-04T14:50:39.166Z,40.09
2019-06-04T14:53:08.602Z,40.30
2019-06-04T14:55:37.839Z,40.33
2019-06-04T14:58:07.851Z,40.21
2019-06-04T15:00:39.139Z,40.01
2019-06-04T15:03:09.205Z,39.21
2019-06-04T15:05:37.389Z,40.07
2019-06-04T15:08:06.537Z,40.60
2019-06-04T15:10:35.362Z,39.58
2019-06-04T15:13:04.301Z,40.13
2019-06-04T15:15:33.201Z,40.10
2019-06-04T15:18:02.093Z,39.91
2019-06-04T15:20:31.007Z,40.44
2019-06-04T15:22:59.929Z,40.68
2019-06-04T15:25:29.513Z,41.06
2019-06-04T15:27:58.432Z,41.13
2019-06-04T15:30:27.360Z,41.58
2019-06-04T15:32:56.268Z,42.05
2019-06-04T15:35:25.185Z,41.51
2019-06-04T15:37:54.108Z,41.65
2019-06-04T15:40:23.120Z,42.22
2019-06-04T15:42:51.919Z,43.18
2019-06-04T15:45:34.409Z,43.62
2019-06-04T15:48:03.393Z,43.29
2019-06-04T15:50:32.296Z,42.80
2019-06-04T15:53:01.201Z,42.82
2019-06-04T15:55:30.108Z,42.62
2019-06-04T15:57:59.029Z,43.13
2019-06-04T16:00:27.897Z,43.73
2019-06-04T16:02:56.773Z,43.94
2019-06-04T16:05:25.680Z,43.65
2019-06-04T16:07:54.866Z,44.20
2019-06-04T16:10:27.691Z,44.15
2019-06-04T16:12:52.413Z,44.53
2019-06-04T16:15:21.465Z,45.08
2019-06-04T16:17:50.508Z,45.13
2019-06-04T16:20:35.898Z,45.32
2019-06-04T16:23:00.918Z,45.41
2019-06-04T16:25:30.694Z,45.90
2019-06-04T16:28:13.358Z,46.11
2019-06-04T16:30:41.249Z,46.72
2019-06-04T16:33:10.209Z,45.94
2019-06-04T16:35:39.095Z,46.26
2019-06-04T16:38:08.327Z,46.76
2019-06-04T16:40:37.151Z,46.91
2019-06-04T16:43:06.760Z,45.99
2019-06-04T16:45:36.272Z,46.33
2019-06-04T16:48:05.305Z,47.08
2019-06-04T16:50:34.201Z,47.22
2019-06-04T16:53:03.183Z,47.35
2019-06-04T16:55:32.052Z,47.24
2019-06-04T16:58:00.943Z,46.83
2019-06-04T17:00:32.082Z,47.81
2019-06-04T17:02:58.722Z,46.86
2019-06-04T17:05:28.205Z,46.96
2019-06-04T17:07:56.531Z,46.90
2019-06-04T17:10:35.645Z,47.47
2019-06-04T17:13:05.986Z,47.31
2019-06-04T17:15:35.869Z,48.04
2019-06-04T17:18:06.000Z,49.37
2019-06-04T17:20:34.950Z,48.68
2019-06-04T17:23:03.946Z,49.00
2019-06-04T17:25:32.893Z,48.94
2019-06-04T17:28:01.853Z,48.78
2019-06-04T17:30:32.167Z,49.62
2019-06-04T17:32:59.719Z,49.89
2019-06-04T17:35:28.801Z,49.74
2019-06-04T17:37:57.512Z,49.79
2019-06-04T17:40:27.730Z,49.52
2019-06-04T17:43:05.998Z,49.91
2019-06-04T17:45:25.362Z,50.25
2019-06-04T17:47:53.947Z,50.72
2019-06-04T17:50:24.054Z,50.69
2019-06-04T17:52:51.758Z,51.18
2019-06-04T17:55:20.668Z,51.37
2019-06-04T17:57:49.564Z,51.99
2019-06-04T18:00:28.726Z,52.15
2019-06-04T18:02:57.380Z,52.37
2019-06-04T18:05:27.427Z,52.62
2019-06-04T18:07:55.234Z,53.13
2019-06-04T18:10:24.157Z,53.00
2019-06-04T18:12:53.072Z,53.14
2019-06-04T18:15:22.010Z,53.33
2019-06-04T18:17:50.918Z,53.25
2019-06-04T18:20:19.887Z,53.71
2019-06-04T18:22:48.776Z,53.40
2019-06-04T18:25:17.682Z,54.14
2019-06-04T18:27:46.600Z,54.20
2019-06-04T18:30:15.501Z,54.40
2019-06-04T18:32:44.402Z,54.55
2019-06-04T18:35:13.342Z,54.55
2019-06-04T18:37:42.292Z,54.71
2019-06-04T18:40:11.180Z,55.12
2019-06-04T18:42:40.123Z,55.27
2019-06-04T18:45:11.600Z,55.25
2019-06-04T18:47:44.732Z,55.88
2019-06-04T18:50:09.664Z,55.33
2019-06-04T18:52:39.686Z,56.18
2019-06-04T18:55:07.714Z,55.87
2019-06-04T18:57:38.064Z,56.53
2019-06-04T19:00:06.046Z,56.44
2019-06-04T19:02:34.864Z,56.66
2019-06-04T19:05:03.838Z,56.86
2019-06-04T19:07:32.769Z,56.88
2019-06-04T19:10:01.754Z,57.10
2019-06-04T19:12:30.965Z,56.96
2019-06-04T19:14:59.511Z,57.12
2019-06-04T19:17:28.447Z,57.61
2019-06-04T19:19:57.342Z,57.56
2019-06-04T19:22:26.227Z,57.72
2019-06-04T19:24:55.613Z,57.88
2019-06-04T19:27:25.995Z,58.33
2019-06-04T19:29:53.318Z,57.88
2019-06-04T19:32:22.220Z,58.48
2019-06-04T19:34:51.175Z,58.52
2019-06-04T19:37:20.085Z,58.36
2019-06-04T19:39:49.030Z,58.43
2019-06-04T19:42:17.932Z,58.80
2019-06-04T19:44:46.819Z,58.22
2019-06-04T19:47:15.764Z,58.75
2019-06-04T19:49:44.729Z,58.39
2019-06-04T19:52:13.619Z,58.86
2019-06-04T19:54:43.171Z,58.99
2019-06-04T19:57:11.412Z,59.17
2019-06-04T19:59:42.083Z,58.99
2019-06-04T20:02:09.485Z,59.08
2019-06-04T20:04:39.835Z,59.18
2019-06-04T20:07:07.640Z,59.37
2019-06-04T20:09:36.532Z,59.37
2019-06-04T20:12:05.460Z,59.59
2019-06-04T20:14:41.758Z,58.98
2019-06-04T20:17:03.300Z,59.43
2019-06-04T20:19:32.191Z,59.56
2019-06-04T20:22:01.079Z,59.24
2019-06-04T20:24:30.015Z,59.29
2019-06-04T20:26:58.916Z,59.60
2019-06-04T20:29:27.789Z,59.34
2019-06-04T20:31:56.699Z,59.09
2019-06-04T20:34:25.610Z,59.24
2019-06-04T20:36:54.486Z,58.92
2019-06-04T20:39:23.437Z,58.85
2019-06-04T20:41:52.268Z,58.86
2019-06-04T20:44:21.172Z,56.94
2019-06-04T20:46:50.758Z,63.46
2019-06-04T20:49:27.703Z,72.31
2019-06-04T20:51:48.705Z,77.31
2019-06-04T20:54:16.860Z,81.88
2019-06-04T20:57:11.806Z,82.52
2019-06-04T20:59:14.702Z,83.93
2019-06-04T21:01:43.580Z,85.07
2019-06-04T21:04:12.470Z,84.92
2019-06-04T21:06:41.367Z,85.59
2019-06-04T21:09:10.294Z,87.17
2019-06-04T21:11:39.185Z,88.99
2019-06-04T21:14:08.143Z,88.90
2019-06-04T21:16:37.067Z,89.81
2019-06-04T21:19:05.977Z,89.65
2019-06-04T21:21:34.873Z,88.14
2019-06-04T21:24:03.910Z,90.11
2019-06-04T21:26:32.811Z,90.25
2019-06-04T21:29:01.709Z,90.57
2019-06-04T21:31:30.616Z,91.11
2019-06-04T21:33:59.521Z,91.98
2019-06-04T21:36:28.385Z,91.16
2019-06-04T21:38:57.281Z,91.08
2019-06-04T21:41:26.173Z,91.10
2019-06-04T21:43:55.206Z,91.01
2019-06-04T21:46:24.028Z,91.42
2019-06-04T21:48:53.466Z,91.08
2019-06-04T21:51:21.827Z,91.14
2019-06-04T21:53:51.963Z,90.72
2019-06-04T21:56:19.610Z,90.89
2019-06-04T21:58:48.534Z,90.52
2019-06-04T22:01:17.380Z,89.86
2019-06-04T22:03:47.684Z,89.68
2019-06-04T22:06:15.212Z,89.57
2019-06-04T22:08:44.098Z,89.77
2019-06-04T22:11:13.015Z,89.36
2019-06-04T22:13:41.894Z,88.84
2019-06-04T22:16:11.599Z,87.24
2019-06-04T22:18:39.660Z,88.02
2019-06-04T22:21:08.599Z,88.16
2019-06-04T22:23:37.511Z,88.56
2019-06-04T22:26:06.390Z,86.72
2019-06-04T22:28:35.282Z,88.04
2019-06-04T22:31:04.176Z,88.64
2019-06-04T22:33:33.064Z,88.61
2019-06-04T22:36:01.931Z,88.43
2019-06-04T22:38:30.824Z,88.33
2019-06-04T22:40:59.691Z,89.07
2019-06-04T22:43:28.556Z,89.28
2019-06-04T22:45:57.788Z,89.63
2019-06-04T22:48:26.368Z,89.29
2019-06-04T22:50:56.695Z,89.15
2019-06-04T22:53:24.139Z,88.22
2019-06-04T22:55:53.040Z,88.36
2019-06-04T22:58:21.912Z,88.72
2019-06-04T23:00:51.200Z,88.24
2019-06-04T23:03:19.708Z,87.28
2019-06-04T23:05:48.613Z,88.50
2019-06-04T23:08:17.494Z,89.15
2019-06-04T23:10:46.389Z,89.73
2019-06-04T23:13:15.270Z,89.47
2019-06-04T23:15:44.197Z,89.09
2019-06-04T23:18:13.110Z,89.83
2019-06-04T23:20:42.012Z,89.03
2019-06-04T23:23:10.902Z,89.17
2019-06-04T23:25:39.774Z,88.90
2019-06-04T23:28:08.765Z,88.91
2019-06-04T23:30:37.645Z,89.01
2019-06-04T23:33:06.604Z,89.74
2019-06-04T23:35:35.504Z,88.90
2019-06-04T23:38:05.620Z,89.63
2019-06-04T23:40:33.367Z,90.96
2019-06-04T23:43:02.293Z,90.26
2019-06-04T23:45:31.207Z,90.51
2019-06-04T23:48:00.317Z,88.31
2019-06-04T23:50:29.032Z,89.67
2019-06-04T23:52:57.909Z,89.85
2019-06-04T23:55:26.810Z,89.81
2019-06-04T23:57:55.709Z,89.34
